Nearby METAR Reports

 

ELLX - Luxembourg (aut), Luxembourg
Distance from station: NNE 33km
Updated: 11/04/2021 00:50
Light rain, Mostly cloudy
Light rain, Mostly cloudy
 Wind from S
Wind: S 15 km/h
Temperature: 8°C
Wind Chill: 5°C
Dew Point: 8°C
Humidity: 100%
Barometer: 1008 hPa
Summary: Light rain
Clouds: Mostly cloudy
Visibility: 2 km
Cloud details: Partly cloudy 30 m
Mostly cloudy 61 m
Mostly cloudy 183 m
2021/04/10 22:50 ELLX 102250Z 17008KT 2000 -RA SCT001 BKN002 BKN006 08/08 Q1008 RERA NOSIG
LFJL - Metz-Nancy-Lorra, France
Distance from station: SSE 46km
Updated: 11/04/2021 00:30
Light rain, Thunderstorm
Light rain, Thunderstorm
 Wind from S
Wind: S 13 km/h
Temperature: 10°C
Wind Chill: 8°C
Dew Point: 8°C
Humidity: 88%
Barometer: 1009 hPa
Summary: Light rain
Clouds: Thunderstorm
Visibility: 10 km
2021/04/10 22:30 LFJL 102230Z AUTO 17007KT 9999 -RA ///TCU 10/08 Q1009 BECMG NSC
 
EDDR - Saarbruecken, Germany
Distance from station: E 78km
Updated: 11/04/2021 00:50
Partly cloudy
Partly cloudy
 Wind from calm
Wind: Calm
Temperature: 9°C
Dew Point: 7°C
Humidity: 87%
Barometer: 1009 hPa
Clouds: Partly cloudy
Visibility: 10 km
Cloud details: Partly cloudy 1128 m
2021/04/10 22:50 EDDR 102250Z 00000KT 9999 SCT037 09/07 Q1009
LFSN - Nancy/Essey, France
Distance from station: S 78km
Updated: 11/04/2021 00:30
Clear
Clear
 Wind from S
Wind: S 13 km/h
Temperature: 12°C
Dew Point: 6°C
Humidity: 67%
Barometer: 1009 hPa
Summary: Clear
Visibility: greater than 10 km
2021/04/10 22:30 LFSN 102230Z AUTO 18007KT 150V210 CAVOK 12/06 Q1009